sensor_id;sensor_type;location;lat;lon;timestamp;pressure;altitude;pressure_sealevel;temperature;humidity
64340;BME280;50674;53.290;-9.080;2022-07-23T00:01:26;101508.09;;;19.21;88.16
64340;BME280;50674;53.290;-9.080;2022-07-23T00:03:54;101516.81;;;19.15;88.57
64340;BME280;50674;53.290;-9.080;2022-07-23T00:06:20;101519.22;;;19.18;88.67
64340;BME280;50674;53.290;-9.080;2022-07-23T00:08:46;101523.47;;;19.20;88.57
64340;BME280;50674;53.290;-9.080;2022-07-23T00:11:12;101519.22;;;19.18;88.37
64340;BME280;50674;53.290;-9.080;2022-07-23T00:13:38;101510.41;;;19.16;88.87
64340;BME280;50674;53.290;-9.080;2022-07-23T00:16:03;101504.53;;;19.20;88.72
64340;BME280;50674;53.290;-9.080;2022-07-23T00:18:29;101504.69;;;19.19;88.66
64340;BME280;50674;53.290;-9.080;2022-07-23T00:20:55;101507.00;;;19.14;88.80
64340;BME280;50674;53.290;-9.080;2022-07-23T00:23:20;101497.03;;;19.14;88.88
64340;BME280;50674;53.290;-9.080;2022-07-23T00:28:14;101488.75;;;19.16;89.01
64340;BME280;50674;53.290;-9.080;2022-07-23T00:30:40;101490.44;;;19.17;88.99
64340;BME280;50674;53.290;-9.080;2022-07-23T00:33:06;101486.75;;;19.18;88.93
64340;BME280;50674;53.290;-9.080;2022-07-23T00:35:33;101487.19;;;19.13;89.17
64340;BME280;50674;53.290;-9.080;2022-07-23T00:38:00;101478.22;;;19.13;89.13
64340;BME280;50674;53.290;-9.080;2022-07-23T00:40:25;101478.94;;;19.15;89.22
64340;BME280;50674;53.290;-9.080;2022-07-23T00:42:51;101470.97;;;19.13;89.15
64340;BME280;50674;53.290;-9.080;2022-07-23T00:45:17;101462.94;;;19.21;88.93
64340;BME280;50674;53.290;-9.080;2022-07-23T00:47:43;101457.34;;;19.23;88.80
64340;BME280;50674;53.290;-9.080;2022-07-23T00:50:10;101452.09;;;19.21;88.81
64340;BME280;50674;53.290;-9.080;2022-07-23T00:52:37;101458.69;;;19.19;89.22
64340;BME280;50674;53.290;-9.080;2022-07-23T00:55:03;101446.16;;;19.18;89.24
64340;BME280;50674;53.290;-9.080;2022-07-23T00:57:30;101443.59;;;19.16;89.30
64340;BME280;50674;53.290;-9.080;2022-07-23T00:59:56;101442.91;;;19.14;89.49
64340;BME280;50674;53.290;-9.080;2022-07-23T01:02:24;101434.09;;;19.12;89.62
64340;BME280;50674;53.290;-9.080;2022-07-23T01:04:50;101424.50;;;19.18;89.54
64340;BME280;50674;53.290;-9.080;2022-07-23T01:07:16;101428.53;;;19.14;89.65
64340;BME280;50674;53.290;-9.080;2022-07-23T01:09:44;101426.44;;;19.07;89.98
64340;BME280;50674;53.290;-9.080;2022-07-23T01:12:10;101419.53;;;19.13;89.77
64340;BME280;50674;53.290;-9.080;2022-07-23T01:14:35;101415.38;;;19.19;89.71
64340;BME280;50674;53.290;-9.080;2022-07-23T01:17:02;101412.84;;;19.17;89.74
64340;BME280;50674;53.290;-9.080;2022-07-23T01:19:28;101406.34;;;19.10;90.20
64340;BME280;50674;53.290;-9.080;2022-07-23T01:21:55;101400.44;;;19.15;90.13
64340;BME280;50674;53.290;-9.080;2022-07-23T01:24:23;101405.81;;;19.06;90.41
64340;BME280;50674;53.290;-9.080;2022-07-23T01:26:49;101395.97;;;19.05;90.62
64340;BME280;50674;53.290;-9.080;2022-07-23T01:29:16;101395.97;;;19.05;90.84
64340;BME280;50674;53.290;-9.080;2022-07-23T01:31:42;101386.31;;;19.03;91.06
64340;BME280;50674;53.290;-9.080;2022-07-23T01:34:09;101387.66;;;18.99;91.29
64340;BME280;50674;53.290;-9.080;2022-07-23T01:36:35;101387.31;;;19.02;91.31
64340;BME280;50674;53.290;-9.080;2022-07-23T01:39:01;101384.59;;;19.02;91.25
64340;BME280;50674;53.290;-9.080;2022-07-23T01:41:27;101380.91;;;19.03;91.26
64340;BME280;50674;53.290;-9.080;2022-07-23T01:43:53;101374.66;;;19.02;91.34
64340;BME280;50674;53.290;-9.080;2022-07-23T01:46:19;101375.63;;;19.01;91.29
64340;BME280;50674;53.290;-9.080;2022-07-23T01:48:45;101364.69;;;19.03;91.46
64340;BME280;50674;53.290;-9.080;2022-07-23T01:51:11;101371.59;;;19.05;91.46
64340;BME280;50674;53.290;-9.080;2022-07-23T01:53:36;101369.38;;;19.01;91.69
64340;BME280;50674;53.290;-9.080;2022-07-23T01:56:01;101368.06;;;19.05;91.37
64340;BME280;50674;53.290;-9.080;2022-07-23T01:58:28;101355.78;;;19.10;91.05
64340;BME280;50674;53.290;-9.080;2022-07-23T02:00:54;101359.16;;;19.13;91.01
64340;BME280;50674;53.290;-9.080;2022-07-23T02:03:20;101369.59;;;19.07;91.28
64340;BME280;50674;53.290;-9.080;2022-07-23T02:05:46;101362.03;;;19.11;91.20
64340;BME280;50674;53.290;-9.080;2022-07-23T02:08:12;101356.09;;;19.07;91.30
64340;BME280;50674;53.290;-9.080;2022-07-23T02:10:38;101354.75;;;19.12;91.08
64340;BME280;50674;53.290;-9.080;2022-07-23T02:13:04;101355.47;;;19.14;91.19
64340;BME280;50674;53.290;-9.080;2022-07-23T02:15:30;101346.94;;;19.08;91.31
64340;BME280;50674;53.290;-9.080;2022-07-23T02:17:55;101346.09;;;19.08;91.38
64340;BME280;50674;53.290;-9.080;2022-07-23T02:20:21;101343.56;;;19.06;91.47
64340;BME280;50674;53.290;-9.080;2022-07-23T02:22:48;101341.47;;;19.00;91.70
64340;BME280;50674;53.290;-9.080;2022-07-23T02:25:14;101344.19;;;19.00;91.74
64340;BME280;50674;53.290;-9.080;2022-07-23T02:27:39;101337.75;;;19.01;91.85
64340;BME280;50674;53.290;-9.080;2022-07-23T02:30:05;101335.06;;;19.01;91.90
64340;BME280;50674;53.290;-9.080;2022-07-23T02:32:32;101328.97;;;18.99;91.85
64340;BME280;50674;53.290;-9.080;2022-07-23T02:34:58;101326.56;;;18.96;92.07
64340;BME280;50674;53.290;-9.080;2022-07-23T02:37:24;101325.41;;;18.99;91.81
64340;BME280;50674;53.290;-9.080;2022-07-23T02:39:50;101325.56;;;18.97;91.71
64340;BME280;50674;53.290;-9.080;2022-07-23T02:42:16;101323.88;;;18.96;91.79
64340;BME280;50674;53.290;-9.080;2022-07-23T02:44:42;101326.25;;;18.99;91.67
64340;BME280;50674;53.290;-9.080;2022-07-23T02:47:08;101321.16;;;18.96;91.84
64340;BME280;50674;53.290;-9.080;2022-07-23T02:49:33;101311.00;;;18.98;91.75
64340;BME280;50674;53.290;-9.080;2022-07-23T02:51:58;101310.66;;;18.93;91.85
64340;BME280;50674;53.290;-9.080;2022-07-23T02:54:24;101309.31;;;18.97;91.87
64340;BME280;50674;53.290;-9.080;2022-07-23T02:56:49;101303.06;;;18.97;91.81
64340;BME280;50674;53.290;-9.080;2022-07-23T02:59:18;101300.88;;;19.00;91.70
64340;BME280;50674;53.290;-9.080;2022-07-23T03:01:44;101297.81;;;18.95;91.89
64340;BME280;50674;53.290;-9.080;2022-07-23T03:04:09;101276.00;;;18.97;91.79
64340;BME280;50674;53.290;-9.080;2022-07-23T03:06:35;101275.31;;;18.95;91.93
64340;BME280;50674;53.290;-9.080;2022-07-23T03:09:01;101279.56;;;18.97;91.75
64340;BME280;50674;53.290;-9.080;2022-07-23T03:11:28;101269.38;;;18.91;92.07
64340;BME280;50674;53.290;-9.080;2022-07-23T03:13:54;101269.84;;;18.86;92.30
64340;BME280;50674;53.290;-9.080;2022-07-23T03:16:20;101274.09;;;18.89;91.91
64340;BME280;50674;53.290;-9.080;2022-07-23T03:18:45;101269.03;;;18.94;91.89
64340;BME280;50674;53.290;-9.080;2022-07-23T03:21:11;101259.19;;;18.85;92.19
64340;BME280;50674;53.290;-9.080;2022-07-23T03:23:36;101257.63;;;18.82;92.12
64340;BME280;50674;53.290;-9.080;2022-07-23T03:26:02;101264.97;;;18.90;91.95
64340;BME280;50674;53.290;-9.080;2022-07-23T03:28:27;101261.59;;;18.88;91.89
64340;BME280;50674;53.290;-9.080;2022-07-23T03:30:53;101264.97;;;18.90;91.98
64340;BME280;50674;53.290;-9.080;2022-07-23T03:33:19;101262.25;;;18.90;91.88
64340;BME280;50674;53.290;-9.080;2022-07-23T03:35:47;101257.16;;;18.87;92.08
64340;BME280;50674;53.290;-9.080;2022-07-23T03:38:12;101253.78;;;18.85;92.04
64340;BME280;50674;53.290;-9.080;2022-07-23T03:40:38;101254.09;;;18.82;92.28
64340;BME280;50674;53.290;-9.080;2022-07-23T03:43:04;101253.06;;;18.83;92.20
64340;BME280;50674;53.290;-9.080;2022-07-23T03:45:32;101245.81;;;18.83;91.99
64340;BME280;50674;53.290;-9.080;2022-07-23T03:47:57;101241.28;;;18.84;92.09
64340;BME280;50674;53.290;-9.080;2022-07-23T03:50:23;101236.50;;;18.78;92.35
64340;BME280;50674;53.290;-9.080;2022-07-23T03:52:49;101233.16;;;18.84;92.21
64340;BME280;50674;53.290;-9.080;2022-07-23T03:55:15;101233.84;;;18.86;92.00
64340;BME280;50674;53.290;-9.080;2022-07-23T03:57:40;101232.16;;;18.85;92.16
64340;BME280;50674;53.290;-9.080;2022-07-23T04:00:07;101234.69;;;18.86;92.11
64340;BME280;50674;53.290;-9.080;2022-07-23T04:02:35;101235.53;;;18.87;92.03
64340;BME280;50674;53.290;-9.080;2022-07-23T04:05:00;101226.09;;;18.91;91.78
64340;BME280;50674;53.290;-9.080;2022-07-23T04:07:26;101221.84;;;18.89;91.86
64340;BME280;50674;53.290;-9.080;2022-07-23T04:09:52;101218.97;;;18.90;91.72
64340;BME280;50674;53.290;-9.080;2022-07-23T04:12:18;101213.56;;;18.90;91.77
64340;BME280;50674;53.290;-9.080;2022-07-23T04:14:44;101213.34;;;18.83;92.01
64340;BME280;50674;53.290;-9.080;2022-07-23T04:17:09;101211.03;;;18.89;91.92
64340;BME280;50674;53.290;-9.080;2022-07-23T04:19:35;101207.31;;;18.90;91.78
64340;BME280;50674;53.290;-9.080;2022-07-23T04:22:05;101200.22;;;18.89;91.82
64340;BME280;50674;53.290;-9.080;2022-07-23T04:24:31;101202.44;;;18.93;91.44
64340;BME280;50674;53.290;-9.080;2022-07-23T04:26:56;101201.59;;;18.93;91.72
64340;BME280;50674;53.290;-9.080;2022-07-23T04:29:23;101199.06;;;18.91;91.74
64340;BME280;50674;53.290;-9.080;2022-07-23T04:31:49;101188.53;;;18.88;91.77
64340;BME280;50674;53.290;-9.080;2022-07-23T04:34:14;101185.00;;;18.88;91.98
64340;BME280;50674;53.290;-9.080;2022-07-23T04:36:41;101169.28;;;18.91;91.77
64340;BME280;50674;53.290;-9.080;2022-07-23T04:39:07;101174.72;;;18.91;91.59
64340;BME280;50674;53.290;-9.080;2022-07-23T04:41:33;101177.25;;;18.93;91.69
64340;BME280;50674;53.290;-9.080;2022-07-23T04:44:01;101182.16;;;18.97;91.66
64340;BME280;50674;53.290;-9.080;2022-07-23T04:46:26;101180.31;;;18.98;91.71
64340;BME280;50674;53.290;-9.080;2022-07-23T04:48:53;101174.03;;;18.97;91.70
64340;BME280;50674;53.290;-9.080;2022-07-23T04:51:18;101175.59;;;19.00;91.52
64340;BME280;50674;53.290;-9.080;2022-07-23T04:53:44;101173.91;;;18.99;91.64
64340;BME280;50674;53.290;-9.080;2022-07-23T04:56:09;101170.31;;;18.98;91.79
64340;BME280;50674;53.290;-9.080;2022-07-23T04:58:36;101168.66;;;19.05;91.52
64340;BME280;50674;53.290;-9.080;2022-07-23T05:01:02;101163.25;;;19.05;91.57
64340;BME280;50674;53.290;-9.080;2022-07-23T05:03:28;101158.84;;;19.04;91.66
64340;BME280;50674;53.290;-9.080;2022-07-23T05:05:53;101160.41;;;19.07;91.64
64340;BME280;50674;53.290;-9.080;2022-07-23T05:08:19;101158.72;;;19.06;91.66
64340;BME280;50674;53.290;-9.080;2022-07-23T05:10:45;101152.81;;;19.10;91.52
64340;BME280;50674;53.290;-9.080;2022-07-23T05:13:11;101149.28;;;19.18;91.24
64340;BME280;50674;53.290;-9.080;2022-07-23T05:15:37;101142.34;;;19.16;91.38
64340;BME280;50674;53.290;-9.080;2022-07-23T05:18:03;101147.75;;;19.16;91.48
64340;BME280;50674;53.290;-9.080;2022-07-23T05:20:28;101141.84;;;19.20;91.39
64340;BME280;50674;53.290;-9.080;2022-07-23T05:22:54;101135.75;;;19.18;91.57
64340;BME280;50674;53.290;-9.080;2022-07-23T05:25:20;101137.97;;;19.23;91.44
64340;BME280;50674;53.290;-9.080;2022-07-23T05:27:46;101127.34;;;19.29;91.15
64340;BME280;50674;53.290;-9.080;2022-07-23T05:30:12;101127.84;;;19.33;91.11
64340;BME280;50674;53.290;-9.080;2022-07-23T05:32:37;101126.34;;;19.39;90.74
64340;BME280;50674;53.290;-9.080;2022-07-23T05:35:04;101122.63;;;19.40;90.79
64340;BME280;50674;53.290;-9.080;2022-07-23T05:37:30;101123.47;;;19.40;90.82
64340;BME280;50674;53.290;-9.080;2022-07-23T05:39:59;101122.13;;;19.44;90.69
64340;BME280;50674;53.290;-9.080;2022-07-23T05:42:25;101113.84;;;19.46;90.62
64340;BME280;50674;53.290;-9.080;2022-07-23T05:44:50;101108.75;;;19.43;90.74
64340;BME280;50674;53.290;-9.080;2022-07-23T05:47:16;101110.28;;;19.45;90.74
64340;BME280;50674;53.290;-9.080;2022-07-23T05:49:43;101116.22;;;19.49;90.69
64340;BME280;50674;53.290;-9.080;2022-07-23T05:52:08;101104.88;;;19.45;90.98
64340;BME280;50674;53.290;-9.080;2022-07-23T05:54:34;101105.72;;;19.46;90.90
64340;BME280;50674;53.290;-9.080;2022-07-23T05:57:01;101099.78;;;19.50;90.72
64340;BME280;50674;53.290;-9.080;2022-07-23T05:59:26;101095.06;;;19.52;90.68
64340;BME280;50674;53.290;-9.080;2022-07-23T06:01:54;101090.50;;;19.53;90.62
64340;BME280;50674;53.290;-9.080;2022-07-23T06:04:20;101090.69;;;19.59;90.52
64340;BME280;50674;53.290;-9.080;2022-07-23T06:06:49;101079.00;;;19.59;90.53
64340;BME280;50674;53.290;-9.080;2022-07-23T06:09:17;101079.66;;;19.61;90.50
64340;BME280;50674;53.290;-9.080;2022-07-23T06:11:44;101070.41;;;19.64;90.48
64340;BME280;50674;53.290;-9.080;2022-07-23T06:14:10;101071.09;;;19.66;90.41
64340;BME280;50674;53.290;-9.080;2022-07-23T06:16:35;101074.66;;;19.66;90.36
64340;BME280;50674;53.290;-9.080;2022-07-23T06:19:01;101075.31;;;19.68;90.38
64340;BME280;50674;53.290;-9.080;2022-07-23T06:21:26;101066.00;;;19.71;90.37
64340;BME280;50674;53.290;-9.080;2022-07-23T06:23:52;101060.25;;;19.74;90.22
64340;BME280;50674;53.290;-9.080;2022-07-23T06:26:18;101058.06;;;19.77;90.26
64340;BME280;50674;53.290;-9.080;2022-07-23T06:28:43;101057.88;;;19.79;90.40
64340;BME280;50674;53.290;-9.080;2022-07-23T06:31:09;101043.16;;;19.81;90.46
64340;BME280;50674;53.290;-9.080;2022-07-23T06:33:34;101052.13;;;19.82;90.58
64340;BME280;50674;53.290;-9.080;2022-07-23T06:35:59;101042.97;;;19.83;90.27
64340;BME280;50674;53.290;-9.080;2022-07-23T06:38:25;101041.78;;;19.86;90.17
64340;BME280;50674;53.290;-9.080;2022-07-23T06:40:51;101047.03;;;19.87;90.07
64340;BME280;50674;53.290;-9.080;2022-07-23T06:43:17;101045.00;;;19.89;89.97
64340;BME280;50674;53.290;-9.080;2022-07-23T06:45:43;101043.84;;;19.92;89.84
64340;BME280;50674;53.290;-9.080;2022-07-23T06:48:08;101044.16;;;19.97;90.07
64340;BME280;50674;53.290;-9.080;2022-07-23T06:50:33;101032.97;;;20.00;89.91
64340;BME280;50674;53.290;-9.080;2022-07-23T06:53:00;101037.22;;;20.02;90.32
64340;BME280;50674;53.290;-9.080;2022-07-23T06:55:26;101027.03;;;20.04;89.56
64340;BME280;50674;53.290;-9.080;2022-07-23T06:57:52;101033.28;;;20.05;89.47
64340;BME280;50674;53.290;-9.080;2022-07-23T07:00:18;101025.16;;;20.05;89.53
64340;BME280;50674;53.290;-9.080;2022-07-23T07:02:45;101029.91;;;20.11;89.28
64340;BME280;50674;53.290;-9.080;2022-07-23T07:05:10;101023.66;;;20.11;90.07
64340;BME280;50674;53.290;-9.080;2022-07-23T07:07:36;101030.91;;;20.18;89.08
64340;BME280;50674;53.290;-9.080;2022-07-23T07:10:03;101012.78;;;20.19;89.00
64340;BME280;50674;53.290;-9.080;2022-07-23T07:12:29;101013.78;;;20.26;88.89
64340;BME280;50674;53.290;-9.080;2022-07-23T07:14:55;101005.31;;;20.29;88.69
64340;BME280;50674;53.290;-9.080;2022-07-23T07:17:20;101004.78;;;20.34;88.89
64340;BME280;50674;53.290;-9.080;2022-07-23T07:19:46;100998.66;;;20.31;88.82
64340;BME280;50674;53.290;-9.080;2022-07-23T07:22:11;101002.56;;;20.37;88.95
64340;BME280;50674;53.290;-9.080;2022-07-23T07:24:37;100992.22;;;20.41;88.59
64340;BME280;50674;53.290;-9.080;2022-07-23T07:27:02;100990.16;;;20.43;88.53
64340;BME280;50674;53.290;-9.080;2022-07-23T07:29:28;100986.94;;;20.39;88.83
64340;BME280;50674;53.290;-9.080;2022-07-23T07:31:54;100986.66;;;20.34;89.08
64340;BME280;50674;53.290;-9.080;2022-07-23T07:34:19;100985.13;;;20.40;88.81
64340;BME280;50674;53.290;-9.080;2022-07-23T07:36:46;100986.94;;;20.47;88.72
64340;BME280;50674;53.290;-9.080;2022-07-23T07:39:11;100977.63;;;20.50;88.59
64340;BME280;50674;53.290;-9.080;2022-07-23T07:41:37;100982.53;;;20.46;88.93
64340;BME280;50674;53.290;-9.080;2022-07-23T07:44:03;100983.72;;;20.52;88.70
64340;BME280;50674;53.290;-9.080;2022-07-23T07:46:29;100985.06;;;20.56;88.65
64340;BME280;50674;53.290;-9.080;2022-07-23T07:48:55;100979.09;;;20.61;88.79
64340;BME280;50674;53.290;-9.080;2022-07-23T07:51:21;100984.56;;;20.52;89.16
64340;BME280;50674;53.290;-9.080;2022-07-23T07:53:48;100983.88;;;20.50;89.45
64340;BME280;50674;53.290;-9.080;2022-07-23T07:56:13;100979.81;;;20.46;89.75
64340;BME280;50674;53.290;-9.080;2022-07-23T07:58:39;100975.06;;;20.48;89.64
64340;BME280;50674;53.290;-9.080;2022-07-23T08:01:04;100975.59;;;20.52;89.87
64340;BME280;50674;53.290;-9.080;2022-07-23T08:03:31;100966.94;;;20.48;90.23
64340;BME280;50674;53.290;-9.080;2022-07-23T08:06:01;100973.91;;;20.51;90.09
64340;BME280;50674;53.290;-9.080;2022-07-23T08:08:27;100975.56;;;20.60;89.89
64340;BME280;50674;53.290;-9.080;2022-07-23T08:10:53;100967.78;;;20.49;90.34
64340;BME280;50674;53.290;-9.080;2022-07-23T08:13:19;100982.53;;;20.46;90.53
64340;BME280;50674;53.290;-9.080;2022-07-23T08:15:44;100966.44;;;20.53;90.43
64340;BME280;50674;53.290;-9.080;2022-07-23T08:18:10;100976.94;;;20.48;90.50
64340;BME280;50674;53.290;-9.080;2022-07-23T08:20:35;100974.06;;;20.49;90.47
64340;BME280;50674;53.290;-9.080;2022-07-23T08:23:05;100964.56;;;20.45;91.12
64340;BME280;50674;53.290;-9.080;2022-07-23T08:25:34;100973.88;;;20.43;91.69
64340;BME280;50674;53.290;-9.080;2022-07-23T08:28:02;100969.47;;;20.58;91.70
64340;BME280;50674;53.290;-9.080;2022-07-23T08:30:28;100959.13;;;20.62;91.84
64340;BME280;50674;53.290;-9.080;2022-07-23T08:32:56;100958.22;;;20.69;92.09
64340;BME280;50674;53.290;-9.080;2022-07-23T08:35:33;100958.81;;;20.79;91.75
64340;BME280;50674;53.290;-9.080;2022-07-23T08:37:59;100957.63;;;20.82;91.97
64340;BME280;50674;53.290;-9.080;2022-07-23T08:40:28;100958.97;;;20.86;91.71
64340;BME280;50674;53.290;-9.080;2022-07-23T08:42:55;100949.09;;;20.93;91.16
64340;BME280;50674;53.290;-9.080;2022-07-23T08:45:21;100949.91;;;20.94;91.51
64340;BME280;50674;53.290;-9.080;2022-07-23T08:47:48;100949.03;;;21.01;91.27
64340;BME280;50674;53.290;-9.080;2022-07-23T08:50:14;100946.16;;;21.03;91.40
64340;BME280;50674;53.290;-9.080;2022-07-23T08:52:40;100941.19;;;21.07;91.22
64340;BME280;50674;53.290;-9.080;2022-07-23T08:55:06;100941.97;;;21.15;90.92
64340;BME280;50674;53.290;-9.080;2022-07-23T08:57:33;100934.59;;;21.24;90.84
64340;BME280;50674;53.290;-9.080;2022-07-23T08:59:58;100935.75;;;21.30;91.20
64340;BME280;50674;53.290;-9.080;2022-07-23T09:02:24;100929.25;;;21.39;90.96
64340;BME280;50674;53.290;-9.080;2022-07-23T09:04:50;100932.75;;;21.47;90.84
64340;BME280;50674;53.290;-9.080;2022-07-23T09:07:15;100919.25;;;21.54;90.64
64340;BME280;50674;53.290;-9.080;2022-07-23T09:09:40;100922.75;;;21.63;89.93
64340;BME280;50674;53.290;-9.080;2022-07-23T09:12:07;100922.28;;;21.59;89.81
64340;BME280;50674;53.290;-9.080;2022-07-23T09:14:43;100924.81;;;21.61;89.57
64340;BME280;50674;53.290;-9.080;2022-07-23T09:17:12;100911.53;;;21.66;89.05
64340;BME280;50674;53.290;-9.080;2022-07-23T09:19:38;100915.00;;;21.74;89.41
64340;BME280;50674;53.290;-9.080;2022-07-23T09:27:51;100915.09;;;21.96;88.93
64340;BME280;50674;53.290;-9.080;2022-07-23T09:30:19;100924.38;;;22.02;88.79
64340;BME280;50674;53.290;-9.080;2022-07-23T09:33:02;100925.97;;;21.96;88.96
64340;BME280;50674;53.290;-9.080;2022-07-23T09:38:13;100925.19;;;21.87;89.14
64340;BME280;50674;53.290;-9.080;2022-07-23T09:40:38;100923.44;;;21.94;88.79
64340;BME280;50674;53.290;-9.080;2022-07-23T09:43:04;100928.31;;;21.84;89.57
64340;BME280;50674;53.290;-9.080;2022-07-23T09:45:31;100929.69;;;21.80;89.73
64340;BME280;50674;53.290;-9.080;2022-07-23T09:50:38;100926.34;;;21.93;89.43
64340;BME280;50674;53.290;-9.080;2022-07-23T09:53:03;100925.69;;;21.91;90.24
64340;BME280;50674;53.290;-9.080;2022-07-23T09:55:32;100929.53;;;21.96;90.47
64340;BME280;50674;53.290;-9.080;2022-07-23T09:58:07;100933.00;;;22.05;90.33
64340;BME280;50674;53.290;-9.080;2022-07-23T10:00:39;100933.66;;;22.07;90.09
64340;BME280;50674;53.290;-9.080;2022-07-23T10:03:06;100926.47;;;22.14;90.32
64340;BME280;50674;53.290;-9.080;2022-07-23T10:05:32;100929.66;;;22.18;90.14
64340;BME280;50674;53.290;-9.080;2022-07-23T10:07:58;100923.75;;;22.29;89.81
64340;BME280;50674;53.290;-9.080;2022-07-23T10:10:24;100927.47;;;22.28;89.96
64340;BME280;50674;53.290;-9.080;2022-07-23T10:12:53;100926.34;;;22.37;89.87
64340;BME280;50674;53.290;-9.080;2022-07-23T10:15:19;100933.34;;;22.46;89.34
64340;BME280;50674;53.290;-9.080;2022-07-23T10:17:44;100934.13;;;22.55;89.68
64340;BME280;50674;53.290;-9.080;2022-07-23T10:20:10;100920.97;;;22.59;89.63
64340;BME280;50674;53.290;-9.080;2022-07-23T10:22:40;100918.75;;;22.69;88.66
64340;BME280;50674;53.290;-9.080;2022-07-23T10:33:53;100920.34;;;23.42;86.96
64340;BME280;50674;53.290;-9.080;2022-07-23T10:36:27;100909.63;;;23.62;86.15
64340;BME280;50674;53.290;-9.080;2022-07-23T10:38:58;100907.16;;;23.67;86.04
64340;BME280;50674;53.290;-9.080;2022-07-23T10:41:32;100916.63;;;23.72;85.42
64340;BME280;50674;53.290;-9.080;2022-07-23T10:44:18;100915.13;;;23.69;85.29
64340;BME280;50674;53.290;-9.080;2022-07-23T10:47:01;100915.59;;;23.73;84.99
64340;BME280;50674;53.290;-9.080;2022-07-23T10:49:52;100897.22;;;23.60;85.46
64340;BME280;50674;53.290;-9.080;2022-07-23T10:52:23;100912.03;;;23.51;85.42
64340;BME280;50674;53.290;-9.080;2022-07-23T10:57:27;100912.09;;;23.57;85.33
64340;BME280;50674;53.290;-9.080;2022-07-23T11:02:32;100917.94;;;23.54;85.21
64340;BME280;50674;53.290;-9.080;2022-07-23T11:05:04;100913.28;;;23.48;85.12
64340;BME280;50674;53.290;-9.080;2022-07-23T11:07:29;100917.47;;;23.44;84.80
64340;BME280;50674;53.290;-9.080;2022-07-23T11:09:55;100919.53;;;23.42;84.79
64340;BME280;50674;53.290;-9.080;2022-07-23T11:15:00;100909.94;;;23.25;85.73
64340;BME280;50674;53.290;-9.080;2022-07-23T11:17:26;100912.47;;;23.26;86.10
64340;BME280;50674;53.290;-9.080;2022-07-23T11:25:28;100913.47;;;23.18;87.25
64340;BME280;50674;53.290;-9.080;2022-07-23T11:27:54;100913.47;;;23.18;87.44
64340;BME280;50674;53.290;-9.080;2022-07-23T11:32:53;100912.03;;;23.23;87.87
64340;BME280;50674;53.290;-9.080;2022-07-23T11:35:23;100900.03;;;23.17;87.67
64340;BME280;50674;53.290;-9.080;2022-07-23T11:37:49;100903.19;;;23.21;87.76
64340;BME280;50674;53.290;-9.080;2022-07-23T11:40:19;100903.16;;;23.14;87.66
64340;BME280;50674;53.290;-9.080;2022-07-23T11:42:52;100901.31;;;23.21;87.61
64340;BME280;50674;53.290;-9.080;2022-07-23T11:45:18;100900.28;;;23.22;87.38
64340;BME280;50674;53.290;-9.080;2022-07-23T11:47:44;100904.47;;;23.25;87.22
64340;BME280;50674;53.290;-9.080;2022-07-23T11:50:10;100909.22;;;23.16;87.83
64340;BME280;50674;53.290;-9.080;2022-07-23T11:52:39;100903.78;;;23.16;88.22
64340;BME280;50674;53.290;-9.080;2022-07-23T11:55:06;100907.22;;;23.25;87.98
64340;BME280;50674;53.290;-9.080;2022-07-23T11:57:35;100907.63;;;23.22;88.60
64340;BME280;50674;53.290;-9.080;2022-07-23T12:00:07;100899.63;;;23.20;88.55
64340;BME280;50674;53.290;-9.080;2022-07-23T12:02:34;100901.31;;;23.21;88.60
64340;BME280;50674;53.290;-9.080;2022-07-23T12:04:59;100902.19;;;23.22;88.35
64340;BME280;50674;53.290;-9.080;2022-07-23T12:09:54;100894.50;;;23.32;88.60
64340;BME280;50674;53.290;-9.080;2022-07-23T12:12:21;100890.16;;;23.37;88.59
64340;BME280;50674;53.290;-9.080;2022-07-23T12:14:48;100865.91;;;23.49;89.12
64340;BME280;50674;53.290;-9.080;2022-07-23T12:17:14;100882.16;;;23.64;88.37
64340;BME280;50674;53.290;-9.080;2022-07-23T12:19:39;100874.31;;;23.76;88.48
64340;BME280;50674;53.290;-9.080;2022-07-23T12:22:05;100868.25;;;23.80;87.95
64340;BME280;50674;53.290;-9.080;2022-07-23T12:24:31;100875.84;;;23.85;88.09
64340;BME280;50674;53.290;-9.080;2022-07-23T12:27:12;100875.28;;;23.96;88.07
64340;BME280;50674;53.290;-9.080;2022-07-23T12:29:39;100871.44;;;23.90;88.03
64340;BME280;50674;53.290;-9.080;2022-07-23T12:35:01;100871.63;;;23.82;87.99
64340;BME280;50674;53.290;-9.080;2022-07-23T12:37:35;100859.00;;;23.75;88.22
64340;BME280;50674;53.290;-9.080;2022-07-23T12:40:21;100856.59;;;23.93;88.09
64340;BME280;50674;53.290;-9.080;2022-07-23T12:42:52;100857.25;;;24.02;88.10
64340;BME280;50674;53.290;-9.080;2022-07-23T12:45:18;100852.03;;;24.07;88.00
64340;BME280;50674;53.290;-9.080;2022-07-23T12:48:06;100841.94;;;24.01;88.52
64340;BME280;50674;53.290;-9.080;2022-07-23T12:50:33;100838.16;;;24.02;88.03
64340;BME280;50674;53.290;-9.080;2022-07-23T12:53:06;100836.44;;;23.94;87.83
64340;BME280;50674;53.290;-9.080;2022-07-23T12:55:34;100839.13;;;23.87;88.14
64340;BME280;50674;53.290;-9.080;2022-07-23T12:58:09;100839.25;;;23.73;88.70
64340;BME280;50674;53.290;-9.080;2022-07-23T13:00:53;100839.41;;;23.64;88.96
64340;BME280;50674;53.290;-9.080;2022-07-23T13:03:26;100835.63;;;23.65;89.63
64340;BME280;50674;53.290;-9.080;2022-07-23T13:05:52;100841.53;;;23.69;89.53
64340;BME280;50674;53.290;-9.080;2022-07-23T13:08:18;100834.41;;;23.68;89.79
64340;BME280;50674;53.290;-9.080;2022-07-23T13:10:43;100823.78;;;23.73;89.40
64340;BME280;50674;53.290;-9.080;2022-07-23T13:13:12;100826.13;;;23.83;89.20
64340;BME280;50674;53.290;-9.080;2022-07-23T13:15:39;100812.66;;;23.75;89.99
64340;BME280;50674;53.290;-9.080;2022-07-23T13:18:05;100809.34;;;23.86;89.49
64340;BME280;50674;53.290;-9.080;2022-07-23T13:20:31;100815.03;;;23.84;89.58
64340;BME280;50674;53.290;-9.080;2022-07-23T13:22:58;100819.81;;;23.82;90.20